Time;durP1;ratioP1;P1;durP2;ratioP2;P2;SDS_P1;SDS_P2;PMS_P1;PMS_P2;Temp;Humidity;BMP_temperature;BMP_pressure;BME280_temperature;BME280_humidity;BME280_pressure;Samples;Min_cycle;Max_cycle;Signal;HPM_P1;HPM_P2
2022/03/16 00:01:43;;;;;;;70.03;35.03;;;;;;;4.67;nan;101460.06;5101004;28;20477;-70
2022/03/16 00:04:08;;;;;;;69.32;35.13;;;;;;;4.68;nan;101454.66;5113751;28;20039;-70
2022/03/16 00:06:33;;;;;;;78.22;36.53;;;;;;;4.74;nan;101460.19;5113402;28;20031;-70
2022/03/16 00:08:59;;;;;;;78.65;37.10;;;;;;;4.62;nan;101446.63;5085462;28;20119;-71
2022/03/16 00:11:24;;;;;;;77.20;37.60;;;;;;;4.50;nan;101432.28;5108217;28;20059;-71
2022/03/16 00:13:50;;;;;;;72.50;34.85;;;;;;;4.62;nan;101437.03;5107305;28;20069;-70
2022/03/16 00:16:15;;;;;;;77.95;37.92;;;;;;;4.55;nan;101430.84;5080560;28;20058;-70
2022/03/16 00:18:40;;;;;;;76.40;37.60;;;;;;;4.59;nan;101420.88;5108016;28;20118;-69
2022/03/16 00:21:06;;;;;;;70.45;37.58;;;;;;;4.31;nan;101376.81;5109850;28;20025;-69
2022/03/16 00:23:32;;;;;;;78.15;37.42;;;;;;;4.56;nan;101416.81;5105176;28;20497;-70
2022/03/16 00:25:57;;;;;;;78.90;38.00;;;;;;;4.46;nan;101403.09;5099499;28;20084;-70
2022/03/16 00:28:23;;;;;;;76.63;37.33;;;;;;;4.48;nan;101401.97;5110933;28;20134;-69
2022/03/16 00:30:48;;;;;;;85.60;39.00;;;;;;;4.45;nan;101402.28;5112926;28;20574;-69
2022/03/16 00:33:14;;;;;;;82.28;38.70;;;;;;;4.18;nan;101353.81;5111017;28;20027;-69
2022/03/16 00:35:39;;;;;;;79.10;39.10;;;;;;;4.39;nan;101382.03;5082510;28;20116;-69
2022/03/16 00:38:05;;;;;;;78.43;38.42;;;;;;;4.31;nan;101366.41;5104065;28;20039;-69
2022/03/16 00:40:33;;;;;;;77.40;38.10;;;;;;;4.35;nan;101365.09;5103230;28;20039;-69
2022/03/16 00:42:59;;;;;;;74.55;37.40;;;;;;;4.35;nan;101367.69;5109463;28;20447;-69
2022/03/16 00:45:24;;;;;;;75.00;37.05;;;;;;;4.33;nan;101359.22;5097755;28;20040;-69
2022/03/16 00:47:50;;;;;;;71.40;36.38;;;;;;;4.19;nan;101325.94;5112271;28;20036;-69
2022/03/16 00:50:16;;;;;;;75.53;37.38;;;;;;;4.28;nan;101338.00;5104740;28;20043;-69
2022/03/16 00:52:41;;;;;;;82.25;38.65;;;;;;;4.18;nan;101321.72;5106833;28;20249;-70
2022/03/16 00:55:07;;;;;;;79.82;37.60;;;;;;;4.04;nan;101302.28;5098496;28;20493;-70
2022/03/16 00:57:33;;;;;;;75.97;39.65;;;;;;;4.21;nan;101322.22;5106678;28;20032;-69
2022/03/16 00:59:58;;;;;;;79.05;39.67;;;;;;;4.26;nan;101332.13;5108253;28;20036;-69
2022/03/16 01:02:24;;;;;;;81.53;38.67;;;;;;;4.31;nan;101322.06;5079418;28;20050;-71
2022/03/16 01:04:50;;;;;;;81.85;40.40;;;;;;;4.24;nan;101310.66;5112337;28;20043;-70
2022/03/16 01:07:15;;;;;;;83.63;38.50;;;;;;;4.10;nan;101286.03;5090515;28;20036;-71
2022/03/16 01:09:41;;;;;;;72.05;36.45;;;;;;;4.27;nan;101305.13;5087658;28;20101;-68
2022/03/16 01:12:07;;;;;;;73.70;37.28;;;;;;;4.38;nan;101317.84;5084731;28;20036;-69
2022/03/16 01:14:33;;;;;;;70.97;36.38;;;;;;;4.36;nan;101326.81;5089443;28;20031;-69
2022/03/16 01:16:59;;;;;;;69.30;36.17;;;;;;;4.43;nan;101339.03;5107626;28;20047;-70
2022/03/16 01:19:24;;;;;;;77.00;36.55;;;;;;;4.36;nan;101329.41;5093522;28;20059;-70
2022/03/16 01:21:49;;;;;;;67.50;34.92;;;;;;;4.41;nan;101320.13;5093719;28;20722;-70
2022/03/16 01:24:15;;;;;;;70.70;36.17;;;;;;;4.23;nan;101293.38;5083149;28;20115;-69
2022/03/16 01:26:40;;;;;;;70.13;36.50;;;;;;;4.38;nan;101320.47;5095796;28;20535;-68
2022/03/16 01:29:06;;;;;;;73.15;35.05;;;;;;;4.34;nan;101294.88;5111787;28;20032;-69
2022/03/16 01:31:31;;;;;;;73.50;35.05;;;;;;;4.33;nan;101282.78;5109940;28;20482;-69
2022/03/16 01:33:57;;;;;;;66.30;33.78;;;;;;;4.32;nan;101304.63;5088133;28;20032;-70
2022/03/16 01:36:24;;;;;;;65.03;33.97;;;;;;;4.25;nan;101278.38;5112071;28;20111;-68
2022/03/16 01:38:49;;;;;;;64.28;33.35;;;;;;;4.32;nan;101289.00;5090341;28;20039;-71
2022/03/16 01:41:15;;;;;;;66.47;34.55;;;;;;;4.30;nan;101273.50;5104576;28;20027;-68
2022/03/16 01:43:41;;;;;;;63.90;33.33;;;;;;;4.34;nan;101274.81;5111533;28;20061;-69
2022/03/16 01:46:06;;;;;;;65.22;32.85;;;;;;;4.38;nan;101286.56;5092601;28;20080;-68
2022/03/16 01:48:32;;;;;;;65.80;32.45;;;;;;;4.36;nan;101266.84;5109328;28;20084;-71
2022/03/16 01:50:57;;;;;;;62.50;32.00;;;;;;;4.35;nan;101259.97;5091502;28;20027;-71
2022/03/16 01:53:24;;;;;;;62.92;33.22;;;;;;;4.40;nan;101255.88;5079672;28;20103;-69
2022/03/16 01:55:50;;;;;;;64.05;33.70;;;;;;;4.31;nan;101237.81;5083722;28;20039;-69
2022/03/16 01:58:17;;;;;;;61.67;32.60;;;;;;;4.39;nan;101269.91;5080907;28;20386;-70
2022/03/16 02:00:43;;;;;;;63.95;31.73;;;;;;;4.49;nan;101272.38;5080180;28;20528;-70
2022/03/16 02:03:09;;;;;;;57.33;32.40;;;;;;;4.52;nan;101259.00;5081834;28;20036;-69
2022/03/16 02:05:38;;;;;;;64.97;32.42;;;;;;;4.59;nan;101253.94;5111300;28;20038;-69
2022/03/16 02:08:05;;;;;;;58.88;31.67;;;;;;;4.58;nan;101245.31;5103342;28;20028;-70
2022/03/16 02:10:31;;;;;;;64.18;31.48;;;;;;;4.50;nan;101227.03;5090952;28;20101;-69
2022/03/16 02:12:57;;;;;;;61.40;31.83;;;;;;;4.60;nan;101238.13;5089202;28;20032;-70
2022/03/16 02:15:23;;;;;;;56.00;30.05;;;;;;;4.63;nan;101229.97;5079099;28;20039;-70
2022/03/16 02:17:55;;;;;;;62.22;30.92;;;;;;;4.66;nan;101227.03;5108930;28;20122;-69
2022/03/16 02:20:22;;;;;;;58.17;30.52;;;;;;;4.69;nan;101212.81;5110985;28;20028;-69
2022/03/16 02:22:53;;;;;;;62.88;32.60;;;;;;;4.70;nan;101204.03;5096550;28;20039;-69
2022/03/16 02:25:19;;;;;;;62.75;31.38;;;;;;;4.57;nan;101177.63;5111005;28;20035;-69
2022/03/16 02:27:44;;;;;;;62.47;31.30;;;;;;;4.57;nan;101169.81;5108997;28;20077;-70
2022/03/16 02:30:11;;;;;;;67.25;32.47;;;;;;;4.63;nan;101179.59;5088095;28;20139;-69
2022/03/16 02:32:36;;;;;;;61.45;30.92;;;;;;;4.60;nan;101190.38;5100876;28;20020;-70
2022/03/16 02:35:02;;;;;;;57.13;30.90;;;;;;;4.61;nan;101163.28;5108382;28;20549;-69
2022/03/16 02:37:27;;;;;;;59.38;30.55;;;;;;;4.57;nan;101133.31;5083587;28;20059;-69
2022/03/16 02:39:53;;;;;;;63.38;32.28;;;;;;;4.67;nan;101134.75;5102553;28;20068;-72
2022/03/16 02:42:19;;;;;;;61.75;31.42;;;;;;;4.60;nan;101115.53;5103882;28;20027;-72
2022/03/16 02:44:44;;;;;;;57.10;29.65;;;;;;;4.67;nan;101128.72;5091871;28;20505;-71
2022/03/16 02:47:10;;;;;;;51.00;28.30;;;;;;;4.64;nan;101118.59;5106329;28;20028;-72
2022/03/16 02:49:35;;;;;;;55.35;29.05;;;;;;;4.75;nan;101128.69;5094595;28;20416;-72
2022/03/16 02:52:09;;;;;;;52.63;27.67;;;;;;;4.10;nan;101017.56;5091848;28;20786;-71
2022/03/16 02:54:35;;;;;;;58.95;28.60;;;;;;;4.76;nan;101103.41;5099234;28;20035;-72
2022/03/16 02:57:00;;;;;;;57.08;29.25;;;;;;;4.89;nan;101124.56;5078583;28;20040;-72
2022/03/16 02:59:26;;;;;;;53.83;27.55;;;;;;;4.93;nan;101117.19;5087876;28;20126;-72
2022/03/16 03:01:51;;;;;;;53.10;28.58;;;;;;;4.97;nan;101119.28;5090445;28;20414;-70
2022/03/16 03:04:17;;;;;;;52.75;27.65;;;;;;;4.98;nan;101096.63;5107672;28;20063;-68
2022/03/16 03:06:42;;;;;;;56.90;27.75;;;;;;;5.00;nan;101105.91;5097240;28;20038;-69
2022/03/16 03:09:08;;;;;;;55.35;27.45;;;;;;;4.99;nan;101090.44;5099125;28;20032;-69
2022/03/16 03:11:33;;;;;;;55.25;28.27;;;;;;;5.03;nan;101112.59;5105458;28;20120;-69
2022/03/16 03:13:59;;;;;;;53.28;27.38;;;;;;;5.08;nan;101102.47;5091576;28;20474;-69
2022/03/16 03:16:24;;;;;;;58.65;27.67;;;;;;;5.10;nan;101103.09;5103516;28;20035;-69
2022/03/16 03:18:49;;;;;;;53.63;28.08;;;;;;;5.01;nan;101078.03;5101086;28;20485;-69
2022/03/16 03:21:15;;;;;;;54.85;27.23;;;;;;;5.08;nan;101079.78;5107755;28;20020;-69
2022/03/16 03:23:40;;;;;;;54.88;28.05;;;;;;;5.14;nan;101106.97;5075030;28;20027;-69
2022/03/16 03:26:06;;;;;;;52.13;27.50;;;;;;;5.15;nan;101107.78;5110348;28;20027;-69
2022/03/16 03:28:31;;;;;;;47.13;26.58;;;;;;;5.22;nan;101099.13;5087660;28;20036;-69
2022/03/16 03:30:57;;;;;;;53.60;27.67;;;;;;;5.14;nan;101098.34;5119744;28;20036;-69
2022/03/16 03:33:22;;;;;;;51.60;26.67;;;;;;;5.19;nan;101096.81;5120856;28;20030;-71
2022/03/16 03:35:49;;;;;;;54.80;27.67;;;;;;;5.20;nan;101082.81;5122137;28;20594;-69
2022/03/16 03:38:16;;;;;;;53.95;28.40;;;;;;;5.29;nan;101087.00;5120853;28;20118;-69
2022/03/16 03:40:41;;;;;;;61.10;28.95;;;;;;;5.26;nan;101103.00;5106605;28;20027;-70
2022/03/16 03:43:07;;;;;;;54.70;27.58;;;;;;;5.23;nan;101090.28;5120493;28;20031;-70
2022/03/16 03:45:32;;;;;;;57.30;29.25;;;;;;;4.48;nan;100989.91;5091305;28;20032;-70
2022/03/16 03:47:57;;;;;;;56.70;29.52;;;;;;;5.25;nan;101088.31;5080702;28;20020;-70
2022/03/16 03:50:23;;;;;;;52.42;27.88;;;;;;;5.23;nan;101082.44;5104253;28;20039;-70
2022/03/16 03:52:48;;;;;;;58.13;29.38;;;;;;;5.24;nan;101085.88;5091460;28;20106;-70
2022/03/16 03:55:13;;;;;;;55.17;29.17;;;;;;;5.26;nan;101083.91;5103278;28;20044;-71
2022/03/16 03:57:39;;;;;;;56.08;30.35;;;;;;;5.28;nan;101074.91;5103865;28;20051;-71
2022/03/16 04:00:06;;;;;;;62.25;29.98;;;;;;;5.26;nan;101070.84;5109051;28;20488;-71
2022/03/16 04:02:32;;;;;;;56.25;27.83;;;;;;;5.33;nan;101095.28;5102328;28;20047;-72
2022/03/16 04:04:57;;;;;;;64.88;28.15;;;;;;;5.26;nan;101079.50;5109724;28;20030;-72
2022/03/16 04:07:22;;;;;;;57.80;28.70;;;;;;;5.19;nan;101086.38;5087782;28;20081;-71
2022/03/16 04:09:50;;;;;;;54.72;27.67;;;;;;;5.25;nan;101087.50;5086427;28;20036;-72
2022/03/16 04:12:16;;;;;;;53.92;27.95;;;;;;;5.15;nan;101074.69;5089409;28;20044;-70
2022/03/16 04:14:41;;;;;;;56.72;28.25;;;;;;;5.26;nan;101097.75;5095350;28;20051;-70
2022/03/16 04:17:07;;;;;;;56.85;27.73;;;;;;;5.22;nan;101098.28;5109317;28;20035;-72
2022/03/16 04:19:32;;;;;;;61.15;28.52;;;;;;;5.16;nan;101114.66;5102297;28;20111;-70
2022/03/16 04:21:57;;;;;;;58.72;28.05;;;;;;;5.17;nan;101108.44;5089585;28;20494;-70
2022/03/16 04:24:23;;;;;;;56.97;27.77;;;;;;;5.09;nan;101109.28;5107975;28;20092;-70
2022/03/16 04:26:48;;;;;;;53.47;28.25;;;;;;;5.24;nan;101115.44;5093398;28;20396;-70
2022/03/16 04:29:14;;;;;;;45.30;22.67;;;;;;;5.25;nan;101122.25;5107034;28;20059;-70
2022/03/16 04:31:39;;;;;;;46.95;23.85;;;;;;;5.33;nan;101140.47;5097123;28;20048;-70
2022/03/16 04:34:04;;;;;;;51.67;25.20;;;;;;;5.44;nan;101156.78;5111405;28;20031;-70
2022/03/16 04:36:31;;;;;;;55.80;26.58;;;;;;;5.16;nan;101107.63;5104517;28;20032;-70
2022/03/16 04:38:57;;;;;;;50.90;24.85;;;;;;;5.41;nan;101146.66;5110513;28;20028;-70
2022/03/16 04:41:23;;;;;;;54.17;25.23;;;;;;;5.41;nan;101144.88;5111879;28;20101;-70
2022/03/16 04:43:48;;;;;;;41.90;20.88;;;;;;;5.56;nan;101162.41;5091888;28;20031;-70
2022/03/16 04:46:13;;;;;;;46.58;22.00;;;;;;;5.58;nan;101148.19;5112793;28;20024;-70
2022/03/16 04:48:39;;;;;;;42.15;22.10;;;;;;;5.56;nan;101144.94;5110060;28;20027;-71
2022/03/16 04:51:05;;;;;;;56.60;25.02;;;;;;;5.65;nan;101149.13;5092911;28;20044;-71
2022/03/16 04:53:31;;;;;;;47.28;24.83;;;;;;;5.68;nan;101148.78;5098914;28;20032;-70
2022/03/16 04:55:56;;;;;;;60.90;27.25;;;;;;;5.66;nan;101129.84;5103228;28;20032;-70
2022/03/16 04:58:22;;;;;;;65.80;33.22;;;;;;;5.70;nan;101135.53;5102408;28;20074;-70
2022/03/16 05:00:47;;;;;;;82.97;37.33;;;;;;;5.59;nan;101118.47;5100665;28;20126;-71
2022/03/16 05:03:13;;;;;;;70.05;34.38;;;;;;;5.53;nan;101108.69;5103019;28;20039;-70
2022/03/16 05:05:39;;;;;;;68.05;32.08;;;;;;;5.55;nan;101109.34;5094482;28;20032;-70
2022/03/16 05:08:04;;;;;;;66.72;32.72;;;;;;;5.48;nan;101124.91;5101336;28;20092;-70
2022/03/16 05:10:30;;;;;;;56.15;31.40;;;;;;;5.30;nan;101129.59;5110239;28;20036;-70
2022/03/16 05:12:56;;;;;;;62.63;31.83;;;;;;;5.25;nan;101108.41;5076072;28;20040;-69
2022/03/16 05:15:22;;;;;;;64.45;31.75;;;;;;;5.27;nan;101119.50;5106155;28;20040;-74
2022/03/16 05:17:48;;;;;;;54.88;30.10;;;;;;;5.27;nan;101138.56;5094538;28;20032;-72
2022/03/16 05:20:15;;;;;;;60.88;30.80;;;;;;;5.17;nan;101111.88;5111731;28;20031;-72
2022/03/16 05:22:45;;;;;;;59.75;29.20;;;;;;;5.25;nan;101153.59;5064883;28;20122;-72
2022/03/16 05:25:13;;;;;;;65.95;32.75;;;;;;;5.32;nan;101125.00;5111409;28;20035;-73
2022/03/16 05:27:39;;;;;;;57.33;30.65;;;;;;;5.30;nan;101104.28;5100722;28;20123;-73
2022/03/16 05:30:07;;;;;;;55.63;29.55;;;;;;;5.45;nan;101112.19;5095461;28;20028;-72
2022/03/16 05:32:32;;;;;;;64.70;30.80;;;;;;;5.30;nan;101109.50;5111240;28;20401;-73
2022/03/16 05:34:58;;;;;;;58.38;30.30;;;;;;;5.31;nan;101102.47;5098096;28;20032;-73
2022/03/16 05:37:23;;;;;;;67.25;33.33;;;;;;;5.23;nan;101103.34;5100302;28;20080;-73
2022/03/16 05:39:49;;;;;;;57.70;30.95;;;;;;;5.16;nan;101091.97;5101243;28;20020;-74
2022/03/16 05:42:14;;;;;;;58.45;30.55;;;;;;;5.07;nan;101103.44;5101596;28;20031;-73
2022/03/16 05:44:40;;;;;;;56.97;30.00;;;;;;;5.10;nan;101097.88;5112073;28;20059;-74
2022/03/16 05:47:05;;;;;;;56.88;31.10;;;;;;;5.10;nan;101096.09;5109380;28;20118;-73
2022/03/16 05:49:31;;;;;;;58.38;30.35;;;;;;;5.05;nan;101087.94;5093485;28;20489;-73
2022/03/16 05:51:56;;;;;;;63.20;31.70;;;;;;;5.02;nan;101084.84;5110729;28;20028;-74
2022/03/16 05:54:22;;;;;;;52.30;28.80;;;;;;;4.99;nan;101106.91;5095466;28;20047;-73
2022/03/16 05:56:47;;;;;;;56.67;29.10;;;;;;;4.94;nan;101084.91;5111287;28;20055;-73
2022/03/16 05:59:13;;;;;;;52.22;28.88;;;;;;;5.01;nan;101083.25;5111209;28;20055;-73
2022/03/16 06:01:38;;;;;;;50.33;25.63;;;;;;;4.92;nan;101060.78;5103447;28;20043;-72
2022/03/16 06:04:04;;;;;;;49.92;26.10;;;;;;;4.96;nan;101080.34;5107486;28;20057;-73
2022/03/16 06:06:30;;;;;;;54.05;27.17;;;;;;;4.80;nan;101055.94;5109993;28;20042;-73
2022/03/16 06:08:57;;;;;;;50.85;25.48;;;;;;;4.81;nan;101047.13;5105706;28;20031;-74
2022/03/16 06:11:23;;;;;;;43.83;23.52;;;;;;;5.00;nan;101076.38;5078394;28;20473;-74
2022/03/16 06:13:49;;;;;;;50.45;25.48;;;;;;;5.02;nan;101090.06;5106831;28;20126;-72
2022/03/16 06:16:14;;;;;;;48.58;23.58;;;;;;;5.08;nan;101087.59;5110612;28;20110;-74
2022/03/16 06:18:39;;;;;;;47.60;22.80;;;;;;;5.17;nan;101080.53;5110045;28;20477;-72
2022/03/16 06:21:05;;;;;;;48.47;24.00;;;;;;;5.05;nan;101087.13;5110408;28;20571;-72
2022/03/16 06:23:30;;;;;;;48.72;26.58;;;;;;;5.22;nan;101125.22;5106192;28;20032;-71
2022/03/16 06:25:55;;;;;;;52.88;26.90;;;;;;;5.11;nan;101125.59;5084976;28;20107;-71
2022/03/16 06:28:21;;;;;;;53.83;26.17;;;;;;;5.14;nan;101134.88;5104103;28;20032;-71
2022/03/16 06:30:49;;;;;;;51.70;27.48;;;;;;;5.27;nan;101143.00;5082953;28;20375;-71
2022/03/16 06:33:14;;;;;;;49.78;27.20;;;;;;;5.31;nan;101131.19;5084201;28;20111;-71
2022/03/16 06:35:39;;;;;;;51.72;27.85;;;;;;;5.37;nan;101125.31;5109788;28;20027;-71
2022/03/16 06:38:05;;;;;;;54.10;30.58;;;;;;;5.53;nan;101119.13;5110728;28;20115;-71
2022/03/16 06:40:30;;;;;;;49.97;28.75;;;;;;;5.73;nan;101109.84;5098450;28;20111;-71
2022/03/16 06:42:58;;;;;;;49.83;28.58;;;;;;;5.53;nan;101100.84;5089911;28;20088;-71
2022/03/16 06:45:25;;;;;;;51.92;26.95;;;;;;;5.54;nan;101097.28;5108759;28;20426;-71
2022/03/16 06:47:54;;;;;;;49.90;24.13;;;;;;;5.51;nan;101108.06;5109745;28;20039;-71
2022/03/16 06:50:20;;;;;;;43.85;23.95;;;;;;;5.51;nan;101121.94;5102287;28;20039;-71
2022/03/16 06:52:46;;;;;;;44.17;22.95;;;;;;;5.41;nan;101102.25;5104160;28;20028;-72
2022/03/16 06:55:11;;;;;;;42.97;23.60;;;;;;;5.46;nan;101123.44;5107236;28;20031;-74
2022/03/16 06:57:37;;;;;;;47.10;24.92;;;;;;;5.42;nan;101125.59;5109754;28;20073;-73
2022/03/16 07:00:05;;;;;;;55.08;25.35;;;;;;;5.40;nan;101121.53;5085652;28;20409;-72
2022/03/16 07:02:30;;;;;;;49.13;26.30;;;;;;;5.54;nan;101142.50;5106388;28;20391;-71
2022/03/16 07:04:56;;;;;;;46.03;24.90;;;;;;;5.55;nan;101148.53;5108831;28;20036;-72
2022/03/16 07:07:25;;;;;;;44.53;25.17;;;;;;;5.53;nan;101159.16;5108626;28;20172;-71
2022/03/16 07:09:50;;;;;;;53.10;27.17;;;;;;;5.46;nan;101158.22;5090126;28;22389;-72
2022/03/16 07:12:16;;;;;;;54.80;27.50;;;;;;;5.41;nan;101160.53;5097090;28;20063;-71
2022/03/16 07:14:41;;;;;;;48.05;25.90;;;;;;;5.32;nan;101154.53;5097368;28;20513;-70
2022/03/16 07:17:06;;;;;;;44.10;25.77;;;;;;;5.42;nan;101171.78;5111999;28;20123;-70
2022/03/16 07:19:32;;;;;;;50.85;26.55;;;;;;;5.27;nan;101154.25;5093817;28;20024;-71
2022/03/16 07:21:58;;;;;;;50.95;25.70;;;;;;;5.28;nan;101157.66;5107016;28;20024;-73
2022/03/16 07:24:25;;;;;;;55.83;28.85;;;;;;;5.29;nan;101175.78;5114776;28;20038;-72
2022/03/16 07:26:52;;;;;;;48.83;25.35;;;;;;;5.20;nan;101174.19;5106023;28;20024;-72
2022/03/16 07:29:18;;;;;;;48.47;27.45;;;;;;;5.21;nan;101172.38;5118568;28;20047;-73
2022/03/16 07:31:43;;;;;;;53.40;27.05;;;;;;;5.18;nan;101170.94;5105302;28;20054;-73
2022/03/16 07:34:09;;;;;;;53.80;28.85;;;;;;;5.24;nan;101178.09;5094235;28;20144;-70
2022/03/16 07:36:34;;;;;;;50.22;26.88;;;;;;;5.31;nan;101194.69;5101549;28;20038;-70
2022/03/16 07:38:59;;;;;;;63.55;26.90;;;;;;;5.13;nan;101144.53;5094972;28;20100;-73
2022/03/16 07:41:25;;;;;;;49.63;26.95;;;;;;;5.29;nan;101169.72;5082719;28;20706;-70
2022/03/16 07:43:50;;;;;;;56.80;27.77;;;;;;;5.21;nan;101151.50;5104561;28;20829;-71
2022/03/16 07:46:16;;;;;;;56.88;28.85;;;;;;;4.94;nan;101105.78;5072585;28;20485;-71
2022/03/16 07:48:43;;;;;;;63.95;29.23;;;;;;;5.03;nan;101131.69;5107757;28;20715;-70
2022/03/16 07:51:09;;;;;;;51.85;28.48;;;;;;;5.05;nan;101136.72;5083184;28;20097;-70
2022/03/16 07:53:34;;;;;;;52.38;28.05;;;;;;;4.66;nan;101090.56;5100534;28;20455;-71
2022/03/16 07:56:00;;;;;;;48.97;27.15;;;;;;;4.94;nan;101135.31;5108365;28;20049;-71
2022/03/16 07:58:25;;;;;;;47.47;27.38;;;;;;;4.96;nan;101137.75;5112928;28;20035;-71
2022/03/16 08:00:51;;;;;;;50.92;28.02;;;;;;;4.92;nan;101105.94;5107228;28;20502;-72
2022/03/16 08:03:16;;;;;;;51.30;28.45;;;;;;;4.96;nan;101102.03;5099610;28;20070;-71
2022/03/16 08:05:42;;;;;;;55.45;28.65;;;;;;;4.85;nan;101097.97;5105266;28;20028;-72
2022/03/16 08:08:07;;;;;;;57.38;28.25;;;;;;;4.96;nan;101111.66;5098830;28;20040;-71
2022/03/16 08:10:33;;;;;;;57.90;28.80;;;;;;;4.95;nan;101112.63;5097258;28;20039;-71
2022/03/16 08:12:58;;;;;;;52.22;27.45;;;;;;;4.91;nan;101112.16;5108854;28;20485;-71
2022/03/16 08:15:24;;;;;;;52.65;27.25;;;;;;;4.93;nan;101109.38;5088377;28;20039;-71
2022/03/16 08:17:49;;;;;;;50.30;27.02;;;;;;;4.84;nan;101092.94;5099432;28;20393;-70
2022/03/16 08:20:15;;;;;;;52.22;28.67;;;;;;;4.92;nan;101095.50;5111650;28;20469;-74
2022/03/16 08:22:40;;;;;;;51.10;28.38;;;;;;;4.89;nan;101088.84;5106228;28;20231;-72
2022/03/16 08:25:08;;;;;;;49.22;27.63;;;;;;;4.92;nan;101087.69;5105804;28;20038;-73
2022/03/16 08:27:34;;;;;;;57.03;28.60;;;;;;;5.06;nan;101096.59;5105810;28;20049;-73
2022/03/16 08:30:00;;;;;;;53.53;30.25;;;;;;;4.99;nan;101062.53;5112785;28;20501;-73
2022/03/16 08:32:25;;;;;;;54.08;29.33;;;;;;;5.19;nan;101075.13;5094919;28;20055;-74
2022/03/16 08:34:51;;;;;;;59.13;30.27;;;;;;;5.16;nan;101055.41;5112603;28;20049;-72
2022/03/16 08:37:17;;;;;;;57.20;29.45;;;;;;;5.35;nan;101061.97;5100089;28;20422;-73
2022/03/16 08:39:43;;;;;;;56.88;29.00;;;;;;;5.35;nan;101053.34;5108564;28;20500;-70
2022/03/16 08:42:13;;;;;;;49.28;27.50;;;;;;;5.49;nan;101061.22;5093146;28;20036;-73
2022/03/16 08:44:40;;;;;;;53.38;27.17;;;;;;;5.58;nan;101048.91;5112824;28;20465;-73
2022/03/16 08:47:05;;;;;;;53.45;29.20;;;;;;;5.58;nan;101035.84;5109196;28;20077;-74
2022/03/16 08:49:31;;;;;;;58.30;29.80;;;;;;;5.65;nan;101034.16;5101075;28;20039;-73
2022/03/16 08:51:57;;;;;;;52.90;28.80;;;;;;;5.77;nan;101037.16;5111432;28;20123;-72
2022/03/16 08:54:24;;;;;;;54.13;28.95;;;;;;;5.81;nan;101032.38;5099807;28;20028;-73
2022/03/16 08:56:50;;;;;;;49.75;27.58;;;;;;;5.77;nan;101016.25;5098963;28;20517;-72
2022/03/16 08:59:15;;;;;;;50.70;25.80;;;;;;;5.91;nan;101022.47;5111569;28;20508;-73
2022/03/16 09:01:41;;;;;;;49.97;27.35;;;;;;;5.97;nan;101013.97;5101155;28;20024;-72
2022/03/16 09:04:06;;;;;;;47.28;26.90;;;;;;;6.03;nan;101009.81;5109007;28;20070;-73
2022/03/16 09:06:32;;;;;;;46.90;27.70;;;;;;;6.13;nan;101024.25;5092776;28;20035;-71
2022/03/16 09:08:57;;;;;;;47.58;26.63;;;;;;;6.19;nan;101025.31;5101961;28;20031;-72
2022/03/16 09:11:23;;;;;;;43.75;26.02;;;;;;;6.28;nan;101032.09;5095214;28;20548;-74
2022/03/16 09:13:48;;;;;;;48.55;25.88;;;;;;;6.35;nan;101040.84;5103729;28;20397;-73
2022/03/16 09:16:14;;;;;;;46.80;26.33;;;;;;;6.39;nan;101043.88;5078168;28;20039;-70
2022/03/16 09:18:40;;;;;;;48.42;26.33;;;;;;;6.44;nan;101057.25;5090196;28;20184;-70
2022/03/16 09:21:06;;;;;;;139.75;59.42;;;;;;;6.50;nan;101053.91;5112745;28;20072;-70
2022/03/16 09:23:32;;;;;;;66.00;32.63;;;;;;;;;;5087987;28;20042;-70
2022/03/16 09:26:06;;;;;;;225.20;89.38;;;;;;;6.80;nan;101069.59;5089401;28;20122;-70
2022/03/16 09:28:32;;;;;;;75.03;35.80;;;;;;;6.98;nan;101077.03;5099837;28;20032;-68
2022/03/16 09:30:58;;;;;;;61.85;31.48;;;;;;;6.83;nan;101050.88;5083216;28;20055;-68
2022/03/16 09:33:23;;;;;;;50.63;28.80;;;;;;;7.01;nan;101071.41;5106338;28;20035;-69
2022/03/16 09:35:51;;;;;;;56.58;29.77;;;;;;;7.05;nan;101088.38;5106401;28;20067;-69
2022/03/16 09:38:17;;;;;;;51.97;29.23;;;;;;;7.04;nan;101078.94;5105710;28;20039;-69
2022/03/16 09:40:43;;;;;;;53.35;29.23;;;;;;;7.10;nan;101088.66;5087559;28;20127;-69
2022/03/16 09:43:10;;;;;;;53.08;28.73;;;;;;;7.05;nan;101071.88;5105859;28;20118;-68
2022/03/16 09:46:00;;;;;;;55.83;29.63;;;;;;;7.15;nan;101095.94;5111575;28;20024;-69
2022/03/16 09:48:27;;;;;;;51.05;27.73;;;;;;;7.19;nan;101077.06;5095973;28;20035;-68
2022/03/16 09:50:56;;;;;;;47.92;27.67;;;;;;;7.21;nan;101069.84;5106606;28;20614;-69
2022/03/16 09:53:26;;;;;;;50.72;28.20;;;;;;;7.31;nan;101085.25;5094914;28;20031;-67
2022/03/16 09:55:52;;;;;;;52.45;28.35;;;;;;;7.33;nan;101071.97;5111757;28;20396;-69
2022/03/16 09:58:20;;;;;;;44.13;26.30;;;;;;;7.43;nan;101078.50;5093026;28;20481;-69
2022/03/16 10:00:46;;;;;;;45.20;25.50;;;;;;;7.48;nan;101071.91;5111106;28;20051;-69
2022/03/16 10:03:12;;;;;;;49.17;25.58;;;;;;;7.56;nan;101064.69;5092929;28;20115;-69
2022/03/16 10:05:38;;;;;;;42.97;23.88;;;;;;;7.64;nan;101066.41;5112040;28;20067;-69
2022/03/16 10:08:08;;;;;;;43.10;22.25;;;;;;;7.78;nan;101064.69;5073867;28;20115;-72
2022/03/16 10:13:23;;;;;;;41.60;22.80;;;;;;;7.97;nan;101064.00;5108836;28;20028;-67
2022/03/16 10:15:50;;;;;;;38.95;23.00;;;;;;;8.04;nan;101077.97;5092985;28;20043;-68
2022/03/16 10:18:16;;;;;;;42.92;22.83;;;;;;;8.17;nan;101079.09;5091324;28;20036;-67
2022/03/16 10:20:43;;;;;;;43.85;24.25;;;;;;;8.16;nan;101061.72;5094881;28;20035;-74
2022/03/16 10:23:24;;;;;;;39.80;21.50;;;;;;;8.31;nan;101072.94;5099005;28;20054;-74
2022/03/16 10:26:00;;;;;;;35.95;20.10;;;;;;;8.37;nan;101060.84;5047713;28;20033;-74
2022/03/16 10:28:33;;;;;;;38.50;23.27;;;;;;;8.51;nan;101067.81;5048132;28;20447;-74
2022/03/16 10:31:06;;;;;;;38.75;20.40;;;;;;;8.66;nan;101067.66;5055889;28;20071;-75
2022/03/16 10:33:45;;;;;;;34.33;19.60;;;;;;;8.75;nan;101068.31;5055806;28;20055;-75
2022/03/16 10:36:13;;;;;;;33.25;19.35;;;;;;;8.88;nan;101070.97;5061029;28;20033;-76
2022/03/16 10:38:46;;;;;;;38.72;19.60;;;;;;;8.95;nan;101063.94;5060260;28;20086;-75
2022/03/16 10:47:08;;;;;;;27.40;15.95;;;;;;;9.07;nan;101025.56;5061689;28;20040;-75
2022/03/16 10:49:34;;;;;;;28.67;16.48;;;;;;;9.27;nan;101040.59;5044288;28;20104;-69
2022/03/16 10:52:05;;;;;;;22.63;13.45;;;;;;;9.37;nan;101036.53;5042607;28;20101;-67
2022/03/16 10:54:32;;;;;;;27.65;12.43;;;;;;;9.45;nan;101030.25;5054096;28;20044;-67
2022/03/16 10:57:02;;;;;;;20.15;12.32;;;;;;;9.52;nan;101033.72;5081938;28;20051;-68
2022/03/16 10:59:30;;;;;;;22.63;12.18;;;;;;;9.47;nan;101011.66;5095511;28;20701;-67
2022/03/16 11:02:16;;;;;;;22.02;12.02;;;;;;;9.60;nan;101019.56;5110854;28;20069;-69
2022/03/16 11:04:46;;;;;;;20.63;11.52;;;;;;;9.69;nan;101026.22;5096136;28;20058;-69
2022/03/16 11:07:12;;;;;;;26.08;12.02;;;;;;;9.73;nan;101027.44;5110827;28;20520;-68
2022/03/16 11:09:38;;;;;;;27.15;11.23;;;;;;;9.76;nan;101027.03;5098681;28;20036;-68
2022/03/16 11:14:49;;;;;;;19.35;11.98;;;;;;;9.74;nan;100978.28;5111141;28;20035;-67
2022/03/16 11:17:15;;;;;;;19.42;11.07;;;;;;;9.75;nan;100999.13;5102717;28;20058;-68
2022/03/16 11:19:46;;;;;;;28.58;12.20;;;;;;;9.81;nan;101005.38;5097610;28;20040;-67
2022/03/16 11:22:15;;;;;;;22.67;12.40;;;;;;;9.83;nan;101024.41;5105997;28;20087;-68
2022/03/16 11:24:45;;;;;;;21.27;11.93;;;;;;;9.85;nan;101025.00;5073869;28;20023;-68
2022/03/16 11:27:26;;;;;;;26.77;12.75;;;;;;;9.87;nan;101030.88;5112016;28;20032;-69
2022/03/16 11:30:10;;;;;;;21.65;12.90;;;;;;;9.93;nan;101031.88;5103662;28;20043;-68
2022/03/16 11:32:44;;;;;;;23.85;11.95;;;;;;;9.96;nan;101032.28;5110848;28;20055;-68
2022/03/16 11:35:15;;;;;;;18.67;11.70;;;;;;;9.99;nan;101025.78;5097441;28;20028;-67
2022/03/16 11:37:51;;;;;;;20.65;12.13;;;;;;;9.99;nan;101028.44;5094194;28;20055;-67
2022/03/16 11:40:20;;;;;;;16.40;11.23;;;;;;;9.97;nan;101019.94;5111388;28;20034;-66
2022/03/16 11:43:04;;;;;;;22.88;11.00;;;;;;;10.04;nan;101027.81;5097332;28;20657;-68